Time;durP1;ratioP1;P1;durP2;ratioP2;P2;SDS_P1;SDS_P2;PMS_P1;PMS_P2;Temp;Humidity;BMP_temperature;BMP_pressure;BME280_temperature;BME280_humidity;BME280_pressure;Samples;Min_cycle;Max_cycle;Signal;HPM_P1;HPM_P2
2021/08/07 00:01:23;;;;;;;12.07;6.00;;;17.90;99.90;;;;;;5081003;28;20276;-78
2021/08/07 00:03:48;;;;;;;11.30;6.87;;;17.80;99.90;;;;;;5078379;28;20245;-75
2021/08/07 00:06:14;;;;;;;9.43;5.23;;;17.70;99.90;;;;;;5061240;28;20618;-80
2021/08/07 00:08:40;;;;;;;6.93;4.40;;;17.70;99.90;;;;;;5076577;28;20231;-80
2021/08/07 00:11:05;;;;;;;9.77;4.80;;;17.70;99.90;;;;;;5055596;28;20232;-81
2021/08/07 00:13:31;;;;;;;7.30;3.70;;;17.70;99.90;;;;;;5073911;28;20672;-81
2021/08/07 00:15:57;;;;;;;4.80;3.07;;;17.70;99.90;;;;;;5074235;28;20169;-83
2021/08/07 00:18:22;;;;;;;6.07;3.80;;;17.60;99.90;;;;;;5076431;28;20176;-81
2021/08/07 00:20:48;;;;;;;7.57;3.80;;;17.60;99.90;;;;;;5078142;28;20175;-81
2021/08/07 00:23:14;;;;;;;8.00;3.90;;;17.70;99.90;;;;;;5077931;28;20195;-81
2021/08/07 00:25:39;;;;;;;7.13;3.93;;;17.80;99.90;;;;;;5078015;28;20574;-82
2021/08/07 00:28:05;;;;;;;8.13;3.33;;;17.50;99.90;;;;;;5077992;28;20168;-82
2021/08/07 00:30:31;;;;;;;6.37;3.20;;;17.50;99.90;;;;;;5078750;28;20179;-80
2021/08/07 00:32:57;;;;;;;9.20;3.37;;;17.50;99.90;;;;;;5077922;28;20631;-82
2021/08/07 00:35:22;;;;;;;6.00;3.23;;;17.50;99.90;;;;;;5077919;28;20193;-81
2021/08/07 00:37:48;;;;;;;7.20;2.70;;;17.50;99.90;;;;;;5078003;28;20171;-82
2021/08/07 00:40:14;;;;;;;6.57;2.77;;;17.40;99.90;;;;;;5078357;28;20195;-82
2021/08/07 00:42:41;;;;;;;6.03;2.93;;;17.40;99.90;;;;;;5077715;28;20255;-78
2021/08/07 00:45:07;;;;;;;4.93;2.80;;;17.40;99.90;;;;;;5077612;28;20246;-81
2021/08/07 00:47:33;;;;;;;8.53;2.83;;;17.30;99.90;;;;;;5077567;28;20170;-81
2021/08/07 00:49:59;;;;;;;6.53;3.10;;;17.30;99.90;;;;;;5059826;28;20184;-78
2021/08/07 00:52:24;;;;;;;7.63;2.53;;;17.30;99.90;;;;;;5077369;28;20650;-82
2021/08/07 00:54:52;;;;;;;5.73;2.53;;;17.40;99.90;;;;;;5077562;28;20203;-82
2021/08/07 00:57:17;;;;;;;5.23;2.40;;;17.40;99.90;;;;;;5059757;28;20670;-81
2021/08/07 00:59:43;;;;;;;7.87;2.47;;;17.50;99.90;;;;;;5077588;28;20172;-82
2021/08/07 01:02:14;;;;;;;5.30;2.70;;;17.40;99.90;;;;;;5077022;28;20210;-80
2021/08/07 01:05:14;;;;;;;6.33;2.70;;;17.30;99.90;;;;;;5077632;28;20228;-81
2021/08/07 01:07:54;;;;;;;6.30;2.80;;;17.40;99.90;;;;;;5079542;28;20210;-80
2021/08/07 01:10:39;;;;;;;8.77;3.60;;;17.40;99.90;;;;;;5084204;28;20183;-76
2021/08/07 01:13:25;;;;;;;8.10;3.37;;;17.40;99.90;;;;;;5095009;28;20156;-76
2021/08/07 01:15:59;;;;;;;10.53;3.63;;;17.50;99.90;;;;;;5095557;28;20171;-80
2021/08/07 01:18:27;;;;;;;7.07;3.37;;;17.50;99.90;;;;;;5095308;28;20172;-77
2021/08/07 01:20:54;;;;;;;13.63;4.23;;;17.40;99.90;;;;;;5076341;28;20183;-78
2021/08/07 01:23:51;;;;;;;7.43;3.20;;;17.50;99.90;;;;;;5091141;28;20185;-81
2021/08/07 01:26:46;;;;;;;8.10;2.70;;;17.50;99.90;;;;;;5044282;28;20263;-81
2021/08/07 01:29:14;;;;;;;5.43;2.50;;;17.50;99.90;;;;;;5078303;28;20223;-79
2021/08/07 01:31:44;;;;;;;5.50;2.77;;;17.50;99.90;;;;;;5078117;28;20192;-83
2021/08/07 01:34:11;;;;;;;9.63;3.10;;;17.60;99.90;;;;;;5077411;28;20203;-81
2021/08/07 01:36:37;;;;;;;5.47;3.30;;;17.70;99.90;;;;;;5077663;28;20711;-81
2021/08/07 01:39:03;;;;;;;6.93;4.07;;;17.80;99.90;;;;;;5079330;28;20707;-79
2021/08/07 01:41:28;;;;;;;8.40;3.47;;;18.00;99.90;;;;;;5076953;28;20172;-80
2021/08/07 01:43:54;;;;;;;5.13;3.20;;;18.00;99.90;;;;;;5076988;28;20211;-83
2021/08/07 01:46:20;;;;;;;5.03;2.73;;;18.00;99.90;;;;;;5077869;28;20708;-81
2021/08/07 01:48:55;;;;;;;4.87;2.60;;;18.10;99.90;;;;;;5059484;28;20183;-81
2021/08/07 01:51:26;;;;;;;5.73;2.30;;;18.10;99.90;;;;;;5075447;28;20177;-82
2021/08/07 01:53:54;;;;;;;9.37;2.60;;;18.10;99.90;;;;;;5076378;28;20279;-79
2021/08/07 01:56:31;;;;;;;5.57;2.53;;;18.10;99.90;;;;;;5075432;28;20165;-78
2021/08/07 01:59:04;;;;;;;5.90;2.30;;;18.10;99.90;;;;;;5057713;28;20173;-82
2021/08/07 02:01:30;;;;;;;3.90;2.50;;;18.00;99.90;;;;;;5075931;28;20787;-81
2021/08/07 02:03:59;;;;;;;7.70;2.37;;;17.90;99.90;;;;;;5075080;28;20251;-80
2021/08/07 02:06:26;;;;;;;4.90;2.00;;;17.80;99.90;;;;;;5075834;28;20168;-78
2021/08/07 02:08:52;;;;;;;6.57;2.43;;;17.80;99.90;;;;;;5075443;28;20582;-81
2021/08/07 02:11:19;;;;;;;3.97;1.60;;;17.70;99.90;;;;;;5076028;28;20277;-78
2021/08/07 02:13:45;;;;;;;6.77;2.80;;;17.80;99.90;;;;;;5074715;28;20297;-79
2021/08/07 02:16:12;;;;;;;4.70;2.53;;;17.80;99.90;;;;;;5074933;28;20172;-79
2021/08/07 02:18:40;;;;;;;5.37;2.40;;;17.80;99.90;;;;;;5074634;28;20183;-77
2021/08/07 02:21:06;;;;;;;4.80;2.10;;;17.70;99.90;;;;;;5075024;28;20165;-77
2021/08/07 02:23:32;;;;;;;4.70;2.27;;;17.70;99.90;;;;;;5074714;28;20218;-80
2021/08/07 02:26:02;;;;;;;5.03;2.10;;;17.60;99.90;;;;;;5074748;28;20259;-79
2021/08/07 02:28:30;;;;;;;4.33;2.10;;;17.60;99.90;;;;;;5074566;28;20646;-79
2021/08/07 02:30:57;;;;;;;6.93;2.40;;;17.60;99.90;;;;;;5056606;28;20221;-76
2021/08/07 02:33:23;;;;;;;7.50;2.47;;;17.70;99.90;;;;;;5074267;28;20728;-82
2021/08/07 02:35:52;;;;;;;7.03;2.57;;;17.60;99.90;;;;;;5074928;28;20171;-78
2021/08/07 02:38:18;;;;;;;5.27;2.27;;;17.60;99.90;;;;;;5074369;28;20164;-77
2021/08/07 02:40:45;;;;;;;10.37;2.53;;;17.60;99.40;;;;;;5074230;28;20170;-78
2021/08/07 02:43:13;;;;;;;6.77;2.70;;;17.50;99.20;;;;;;5074442;28;20176;-77
2021/08/07 02:45:40;;;;;;;6.90;2.60;;;17.40;99.60;;;;;;5074870;28;20178;-77
2021/08/07 02:48:06;;;;;;;6.83;2.80;;;17.40;99.90;;;;;;5074832;28;20168;-79
2021/08/07 02:50:33;;;;;;;4.43;2.10;;;17.50;99.90;;;;;;5074474;28;20184;-77
2021/08/07 02:53:00;;;;;;;4.97;2.60;;;17.50;99.90;;;;;;5074483;28;20255;-77
2021/08/07 02:55:26;;;;;;;5.83;2.30;;;17.60;99.60;;;;;;5073740;28;20271;-79
2021/08/07 02:57:53;;;;;;;8.27;2.60;;;17.60;99.20;;;;;;5076291;28;20199;-76
2021/08/07 03:00:20;;;;;;;7.33;2.30;;;17.50;98.90;;;;;;5077720;28;20173;-77
2021/08/07 03:02:46;;;;;;;5.97;2.40;;;17.50;98.60;;;;;;5057833;28;20219;-78
2021/08/07 03:05:12;;;;;;;9.47;2.70;;;17.60;98.30;;;;;;5074383;28;20580;-77
2021/08/07 03:07:38;;;;;;;8.13;2.50;;;17.60;98.00;;;;;;5056865;28;20180;-78
2021/08/07 03:10:06;;;;;;;7.07;2.10;;;17.70;97.60;;;;;;5055762;28;20169;-78
2021/08/07 03:12:32;;;;;;;6.70;2.27;;;17.70;96.50;;;;;;5074186;28;20173;-78
2021/08/07 03:14:58;;;;;;;5.00;2.33;;;17.70;95.40;;;;;;5074513;28;20215;-77
2021/08/07 03:17:24;;;;;;;3.97;2.10;;;17.70;95.00;;;;;;5077531;28;20169;-78
2021/08/07 03:19:49;;;;;;;7.47;2.43;;;17.80;94.40;;;;;;5071509;28;20164;-78
2021/08/07 03:22:17;;;;;;;6.63;2.57;;;17.70;94.10;;;;;;5095794;28;20172;-76
2021/08/07 03:24:43;;;;;;;6.73;2.30;;;17.80;93.90;;;;;;5069630;28;20203;-77
2021/08/07 03:27:09;;;;;;;5.83;1.93;;;17.70;94.10;;;;;;5065902;28;20174;-76
2021/08/07 03:29:35;;;;;;;10.20;2.77;;;17.50;94.70;;;;;;5084712;28;20174;-76
2021/08/07 03:32:01;;;;;;;7.47;2.17;;;17.50;94.80;;;;;;5086646;28;20164;-78
2021/08/07 03:34:27;;;;;;;6.07;2.30;;;17.60;94.40;;;;;;5083273;28;20333;-82
2021/08/07 03:36:54;;;;;;;9.43;2.40;;;17.50;93.50;;;;;;5076026;28;20165;-82
2021/08/07 03:39:20;;;;;;;5.93;2.13;;;17.50;93.70;;;;;;5074280;28;20191;-81
2021/08/07 03:41:47;;;;;;;6.87;2.60;;;17.50;93.90;;;;;;5073724;28;20188;-79
2021/08/07 03:44:13;;;;;;;4.87;2.27;;;17.60;93.60;;;;;;5073743;28;20196;-78
2021/08/07 03:46:39;;;;;;;7.70;2.37;;;17.70;92.40;;;;;;5073485;28;20164;-78
2021/08/07 03:49:05;;;;;;;7.20;2.20;;;17.70;91.50;;;;;;5073493;28;20169;-78
2021/08/07 03:51:30;;;;;;;8.07;2.60;;;17.60;92.10;;;;;;5073350;28;20180;-77
2021/08/07 03:53:56;;;;;;;6.47;2.87;;;17.80;91.40;;;;;;5072544;28;20200;-80
2021/08/07 03:56:22;;;;;;;9.70;2.57;;;17.80;90.60;;;;;;5055069;28;20632;-79
2021/08/07 03:58:48;;;;;;;5.93;2.23;;;17.90;89.80;;;;;;5073121;28;20179;-77
2021/08/07 04:01:13;;;;;;;5.20;2.43;;;18.00;87.00;;;;;;5072765;28;20178;-78
2021/08/07 04:03:39;;;;;;;7.43;2.77;;;18.20;85.10;;;;;;5073050;28;20164;-78
2021/08/07 04:06:05;;;;;;;7.70;3.23;;;18.10;81.20;;;;;;5073138;28;20164;-78
2021/08/07 04:08:31;;;;;;;6.83;2.50;;;18.20;79.90;;;;;;5073203;28;20668;-77
2021/08/07 04:10:56;;;;;;;8.47;2.40;;;18.10;76.90;;;;;;5073589;28;20168;-78
2021/08/07 04:13:22;;;;;;;6.57;2.97;;;18.10;78.10;;;;;;5073868;28;20204;-78
2021/08/07 04:15:48;;;;;;;6.87;2.83;;;18.30;75.70;;;;;;5072912;28;20180;-77
2021/08/07 04:18:13;;;;;;;7.63;2.60;;;18.30;73.10;;;;;;5072884;28;20172;-78
2021/08/07 04:20:39;;;;;;;6.40;2.67;;;18.20;72.10;;;;;;5072990;28;20238;-78
2021/08/07 04:23:05;;;;;;;7.87;3.10;;;18.00;73.10;;;;;;5073148;28;20161;-78
2021/08/07 04:25:32;;;;;;;6.97;2.83;;;18.10;73.40;;;;;;5073199;28;20234;-82
2021/08/07 04:27:57;;;;;;;6.67;2.40;;;18.20;73.40;;;;;;5073572;28;20171;-81
2021/08/07 04:30:23;;;;;;;6.20;2.50;;;18.20;72.70;;;;;;5072729;28;20173;-80
2021/08/07 04:32:49;;;;;;;5.13;2.30;;;18.20;68.20;;;;;;5055277;28;20648;-81
2021/08/07 04:35:14;;;;;;;6.70;2.33;;;18.30;67.30;;;;;;5072774;28;20214;-81
2021/08/07 04:37:59;;;;;;;6.67;2.67;;;18.40;64.80;;;;;;5072724;28;20252;-80
2021/08/07 04:40:27;;;;;;;6.57;2.70;;;18.50;62.00;;;;;;5073039;28;20189;-82
2021/08/07 04:42:53;;;;;;;6.67;2.50;;;18.40;59.70;;;;;;5055179;28;20189;-82
2021/08/07 04:45:19;;;;;;;8.03;2.60;;;18.40;59.30;;;;;;5073029;28;20176;-81
2021/08/07 04:48:00;;;;;;;7.40;2.80;;;18.50;57.10;;;;;;5072913;28;20248;-80
2021/08/07 04:50:29;;;;;;;5.63;2.60;;;18.50;55.70;;;;;;5073166;28;20276;-78
2021/08/07 04:52:56;;;;;;;5.73;2.73;;;18.40;53.50;;;;;;5072688;28;20169;-78
2021/08/07 04:55:22;;;;;;;7.23;2.73;;;18.30;54.60;;;;;;5072605;28;20205;-78
2021/08/07 04:57:49;;;;;;;6.20;2.47;;;18.20;56.90;;;;;;5072212;28;20170;-78
2021/08/07 05:00:16;;;;;;;5.27;2.53;;;18.00;60.60;;;;;;5054736;28;20178;-79
2021/08/07 05:02:41;;;;;;;8.87;2.83;;;17.90;69.20;;;;;;5072397;28;20176;-78
2021/08/07 05:05:08;;;;;;;5.00;2.60;;;17.80;72.20;;;;;;5075601;28;20171;-78
2021/08/07 05:07:34;;;;;;;7.77;2.90;;;17.70;77.30;;;;;;5077030;28;20170;-79
2021/08/07 05:10:01;;;;;;;7.50;2.67;;;17.60;77.80;;;;;;5078849;28;20168;-78
2021/08/07 05:12:27;;;;;;;7.77;2.50;;;17.50;82.20;;;;;;5079543;28;20164;-77
2021/08/07 05:14:56;;;;;;;6.27;2.80;;;17.40;85.60;;;;;;5085925;28;20218;-77
2021/08/07 05:17:23;;;;;;;5.20;2.50;;;17.30;88.90;;;;;;5084089;28;20200;-82
2021/08/07 05:19:49;;;;;;;6.07;2.60;;;17.30;90.30;;;;;;5081549;28;20178;-80
2021/08/07 05:22:15;;;;;;;4.97;2.30;;;17.40;90.40;;;;;;5082298;28;20544;-81
2021/08/07 05:24:41;;;;;;;6.67;2.67;;;17.30;89.80;;;;;;5080219;28;20201;-79
2021/08/07 05:27:07;;;;;;;8.97;2.60;;;17.30;90.60;;;;;;5075185;28;20168;-78
2021/08/07 05:29:32;;;;;;;10.57;2.70;;;17.30;90.50;;;;;;5075551;28;20234;-78
2021/08/07 05:31:58;;;;;;;6.13;2.70;;;17.30;90.30;;;;;;5075748;28;20190;-78
2021/08/07 05:34:23;;;;;;;8.30;3.27;;;17.30;90.30;;;;;;5075450;28;20222;-78
2021/08/07 05:36:49;;;;;;;6.13;2.57;;;17.20;91.10;;;;;;5075789;28;20596;-78
2021/08/07 05:39:15;;;;;;;6.50;2.57;;;17.20;91.00;;;;;;5057516;28;20202;-78
2021/08/07 05:41:40;;;;;;;6.60;2.77;;;17.20;90.80;;;;;;5057360;28;20178;-78
2021/08/07 05:44:06;;;;;;;8.50;3.07;;;17.30;90.70;;;;;;5075351;28;20176;-78
2021/08/07 05:46:31;;;;;;;6.93;2.63;;;17.30;89.60;;;;;;5075793;28;20246;-79
2021/08/07 05:48:57;;;;;;;12.17;2.73;;;17.30;87.70;;;;;;5075059;28;20277;-78
2021/08/07 05:51:23;;;;;;;6.53;2.60;;;17.20;89.50;;;;;;5075318;28;20176;-82
2021/08/07 05:53:51;;;;;;;9.00;3.37;;;17.20;90.40;;;;;;5075290;28;20196;-81
2021/08/07 05:56:17;;;;;;;10.00;3.10;;;17.10;90.80;;;;;;5074911;28;20647;-82
2021/08/07 05:58:43;;;;;;;9.50;3.40;;;17.20;91.10;;;;;;5075076;28;20260;-78
2021/08/07 06:01:08;;;;;;;6.93;3.30;;;17.20;90.80;;;;;;5075673;28;20253;-79
2021/08/07 06:03:34;;;;;;;6.33;3.17;;;17.40;88.30;;;;;;5074943;28;20173;-77
2021/08/07 06:06:00;;;;;;;6.97;3.20;;;17.40;85.50;;;;;;5075059;28;20174;-78
2021/08/07 06:08:28;;;;;;;6.83;2.97;;;17.30;84.00;;;;;;5057018;28;20183;-78
2021/08/07 06:10:55;;;;;;;8.63;3.00;;;17.30;83.30;;;;;;5074664;28;20169;-77
2021/08/07 06:13:22;;;;;;;7.00;3.40;;;17.20;85.00;;;;;;5057070;28;20173;-77
2021/08/07 06:15:47;;;;;;;9.07;3.60;;;17.20;83.10;;;;;;5074387;28;20170;-82
2021/08/07 06:18:13;;;;;;;8.17;4.17;;;17.20;83.10;;;;;;5075132;28;20194;-80
2021/08/07 06:20:39;;;;;;;10.10;4.63;;;17.10;83.90;;;;;;5075959;28;20252;-81
2021/08/07 06:23:05;;;;;;;10.00;3.47;;;17.10;83.90;;;;;;5078009;28;20263;-81
2021/08/07 06:25:30;;;;;;;7.97;3.20;;;17.20;82.40;;;;;;5076426;28;20532;-80
2021/08/07 06:27:56;;;;;;;7.70;3.57;;;17.20;81.10;;;;;;5075924;28;20257;-82
2021/08/07 06:30:24;;;;;;;8.23;3.23;;;17.30;80.30;;;;;;5076235;28;20178;-82
2021/08/07 06:32:51;;;;;;;10.43;3.03;;;17.40;79.80;;;;;;5075951;28;20218;-79
2021/08/07 06:35:17;;;;;;;11.67;6.37;;;17.40;74.50;;;;;;5080441;28;20233;-82
2021/08/07 06:37:43;;;;;;;7.30;3.10;;;17.60;72.20;;;;;;5077695;28;20261;-82
2021/08/07 06:40:11;;;;;;;6.43;2.77;;;17.60;66.60;;;;;;5077915;28;20256;-82
2021/08/07 06:42:37;;;;;;;6.47;2.20;;;17.60;64.20;;;;;;5078400;28;20168;-81
2021/08/07 06:45:04;;;;;;;7.07;2.77;;;17.50;65.50;;;;;;5076110;28;20177;-81
2021/08/07 06:47:29;;;;;;;9.63;2.80;;;17.50;67.70;;;;;;5077355;28;20172;-81
2021/08/07 06:49:55;;;;;;;7.27;2.70;;;17.60;68.10;;;;;;5076040;28;20207;-82
2021/08/07 06:52:21;;;;;;;8.33;2.87;;;17.70;66.50;;;;;;5077187;28;20237;-82
2021/08/07 06:54:47;;;;;;;6.90;2.40;;;17.60;64.00;;;;;;5076932;28;20208;-81
2021/08/07 06:57:17;;;;;;;7.30;2.80;;;17.70;64.10;;;;;;5083281;28;20175;-80
2021/08/07 06:59:43;;;;;;;8.10;2.73;;;17.80;60.20;;;;;;5064786;28;20175;-82
2021/08/07 07:02:09;;;;;;;5.73;2.40;;;17.90;55.70;;;;;;5083917;28;20193;-81
2021/08/07 07:04:35;;;;;;;5.80;2.40;;;18.00;51.30;;;;;;5083318;28;20170;-81
2021/08/07 07:07:01;;;;;;;5.27;2.20;;;18.30;46.10;;;;;;5079158;28;20267;-81
2021/08/07 07:09:27;;;;;;;9.27;2.60;;;18.30;40.20;;;;;;5076961;28;20171;-77
2021/08/07 07:11:53;;;;;;;6.23;2.30;;;18.30;40.60;;;;;;5084541;28;20188;-81
2021/08/07 07:14:19;;;;;;;6.50;1.70;;;18.20;41.80;;;;;;5082704;28;20204;-78
2021/08/07 07:16:46;;;;;;;8.73;2.00;;;18.20;42.90;;;;;;5075576;28;20203;-79
2021/08/07 07:19:12;;;;;;;7.23;2.23;;;18.20;46.00;;;;;;5075837;28;20206;-79
2021/08/07 07:21:37;;;;;;;5.63;2.13;;;18.30;41.40;;;;;;5074189;28;20577;-79
2021/08/07 07:24:04;;;;;;;6.07;2.10;;;18.20;35.20;;;;;;5075740;28;20206;-77
2021/08/07 07:26:30;;;;;;;5.57;2.00;;;18.30;30.20;;;;;;5076852;28;20180;-80
2021/08/07 07:28:56;;;;;;;8.40;2.23;;;18.40;27.30;;;;;;5077716;28;20651;-78
2021/08/07 07:31:23;;;;;;;7.40;2.27;;;18.50;22.70;;;;;;5078854;28;20183;-80
2021/08/07 07:33:49;;;;;;;5.87;2.63;;;18.60;17.40;;;;;;5077088;28;20257;-80
2021/08/07 07:36:16;;;;;;;8.27;2.20;;;18.50;10.70;;;;;;5073849;28;20172;-79
2021/08/07 07:38:42;;;;;;;4.67;2.27;;;18.50;8.90;;;;;;5074319;28;20644;-83
2021/08/07 07:41:08;;;;;;;6.60;2.10;;;18.60;7.50;;;;;;5083524;28;20191;-78
2021/08/07 07:43:34;;;;;;;7.43;2.13;;;18.60;2.30;;;;;;5085623;28;20194;-76
2021/08/07 07:45:59;;;;;;;6.57;2.13;;;18.60;1.00;;;;;;5081542;28;20169;-79
2021/08/07 07:48:25;;;;;;;9.60;2.30;;;18.60;1.00;;;;;;5073456;28;20172;-79
2021/08/07 07:50:51;;;;;;;7.03;2.40;;;18.50;1.00;;;;;;5073841;28;20175;-79
2021/08/07 07:53:18;;;;;;;6.67;2.17;;;18.60;1.00;;;;;;5072701;28;20248;-78
2021/08/07 07:55:44;;;;;;;5.27;1.60;;;18.70;1.00;;;;;;5072891;28;20176;-78
2021/08/07 07:58:11;;;;;;;6.07;1.53;;;18.90;1.00;;;;;;5072792;28;20171;-80
2021/08/07 08:00:37;;;;;;;5.70;2.17;;;18.90;1.00;;;;;;5072811;28;20233;-78
2021/08/07 08:03:03;;;;;;;4.67;1.70;;;19.00;1.00;;;;;;5073042;28;20204;-78
2021/08/07 08:05:28;;;;;;;6.07;1.80;;;19.10;1.00;;;;;;5055061;28;20180;-79
2021/08/07 08:07:54;;;;;;;4.83;1.70;;;19.10;1.00;;;;;;5072491;28;20168;-80
2021/08/07 08:10:24;;;;;;;6.67;2.33;;;19.30;1.00;;;;;;5072830;28;20168;-83
2021/08/07 08:12:50;;;;;;;7.53;2.00;;;19.50;1.00;;;;;;5073232;28;20166;-81
2021/08/07 08:15:16;;;;;;;5.97;1.67;;;19.60;1.00;;;;;;5073196;28;20197;-81
2021/08/07 08:17:42;;;;;;;6.97;2.23;;;19.50;1.00;;;;;;5072993;28;20165;-83
2021/08/07 08:20:09;;;;;;;5.43;1.90;;;19.80;1.00;;;;;;5054816;28;20608;-81
2021/08/07 08:22:35;;;;;;;5.43;1.93;;;19.90;1.00;;;;;;5072819;28;20162;-83
2021/08/07 08:25:01;;;;;;;5.17;1.97;;;20.00;1.00;;;;;;5073014;28;20193;-81
2021/08/07 08:27:27;;;;;;;8.07;2.30;;;19.90;1.00;;;;;;5054696;28;20579;-83
2021/08/07 08:29:56;;;;;;;5.23;1.70;;;20.00;1.00;;;;;;5072911;28;20182;-83
2021/08/07 08:32:22;;;;;;;8.37;1.80;;;20.10;1.00;;;;;;5072796;28;20178;-82
2021/08/07 08:34:48;;;;;;;5.27;1.83;;;20.20;1.00;;;;;;5073042;28;20197;-80
2021/08/07 08:37:13;;;;;;;6.37;1.60;;;20.20;1.00;;;;;;5073525;28;20634;-81
2021/08/07 08:39:39;;;;;;;7.83;2.50;;;20.20;1.00;;;;;;5076312;28;20669;-79
2021/08/07 08:42:07;;;;;;;6.77;2.50;;;20.30;1.00;;;;;;5077955;28;20178;-79
2021/08/07 08:44:34;;;;;;;5.63;2.23;;;20.40;1.00;;;;;;5077679;28;20182;-79
2021/08/07 08:47:00;;;;;;;10.47;2.23;;;20.60;1.00;;;;;;5077369;28;20185;-79
2021/08/07 08:49:28;;;;;;;6.67;2.00;;;20.70;99.90;;;;;;5077180;28;20225;-78
2021/08/07 08:51:54;;;;;;;5.70;1.87;;;20.80;99.90;;;;;;5079353;28;20613;-80
2021/08/07 08:54:20;;;;;;;7.57;1.90;;;21.00;99.90;;;;;;5076934;28;20265;-80
2021/08/07 08:56:47;;;;;;;6.33;1.67;;;21.10;99.90;;;;;;5076707;28;20168;-81
2021/08/07 08:59:13;;;;;;;7.47;1.90;;;21.00;99.90;;;;;;5076968;28;20183;-82
2021/08/07 09:01:39;;;;;;;5.93;1.83;;;21.00;49.70;;;;;;5076709;28;20168;-83
2021/08/07 09:04:05;;;;;;;8.07;3.00;;;21.10;1.00;;;;;;5076150;28;20171;-80
2021/08/07 09:06:34;;;;;;;5.57;2.00;;;21.20;1.00;;;;;;5076289;28;20198;-82
2021/08/07 09:09:01;;;;;;;8.00;1.77;;;21.00;99.90;;;;;;5076227;28;20160;-82
2021/08/07 09:11:27;;;;;;;5.40;1.67;;;21.00;99.90;;;;;;5076205;28;20168;-79
2021/08/07 09:14:17;;;;;;;3.80;1.73;;;20.90;1.00;;;;;;5075872;28;20201;-79
2021/08/07 09:17:06;;;;;;;9.43;1.97;;;21.10;1.00;;;;;;5076356;28;20635;-78
2021/08/07 09:19:41;;;;;;;6.57;1.90;;;21.20;1.00;;;;;;5075881;28;20219;-81
2021/08/07 09:22:22;;;;;;;6.03;1.77;;;21.50;1.00;;;;;;5076032;28;20261;-81
2021/08/07 09:25:16;;;;;;;7.70;2.00;;;21.50;99.90;;;;;;5076239;28;20526;-82
2021/08/07 09:27:44;;;;;;;7.17;2.27;;;21.60;99.90;;;;;;5054974;28;20183;-82
2021/08/07 09:30:13;;;;;;;5.63;1.87;;;21.70;1.00;;;;;;5076257;28;20175;-82
2021/08/07 09:32:46;;;;;;;6.57;1.93;;;21.90;1.00;;;;;;5076539;28;20217;-80
2021/08/07 09:35:17;;;;;;;6.83;1.60;;;21.80;99.90;;;;;;5076048;28;20210;-83
2021/08/07 09:37:44;;;;;;;4.87;1.80;;;21.70;1.00;;;;;;5076018;28;20639;-78
2021/08/07 09:40:11;;;;;;;5.77;1.57;;;21.60;1.00;;;;;;5076697;28;20200;-80
2021/08/07 09:42:53;;;;;;;8.47;2.17;;;21.40;99.90;;;;;;5076319;28;20161;-81
2021/08/07 09:45:24;;;;;;;6.20;1.90;;;21.30;99.90;;;;;;5076365;28;20171;-79
2021/08/07 09:48:01;;;;;;;7.37;1.60;;;21.40;1.00;;;;;;5075976;28;20172;-80
2021/08/07 09:50:30;;;;;;;5.87;2.30;;;21.40;1.00;;;;;;5041848;28;20581;-79
2021/08/07 09:52:57;;;;;;;5.20;1.77;;;21.40;1.00;;;;;;5077969;28;20172;-79
2021/08/07 09:55:23;;;;;;;5.30;1.50;;;21.50;1.00;;;;;;5078751;28;20213;-81
2021/08/07 09:58:12;;;;;;;3.17;1.30;;;21.50;99.90;;;;;;5077178;28;20176;-81
2021/08/07 10:00:43;;;;;;;4.37;1.23;;;21.40;1.00;;;;;;5060028;28;20184;-82
2021/08/07 10:03:31;;;;;;;4.67;1.80;;;21.30;1.00;;;;;;5076154;28;20229;-78
2021/08/07 10:06:21;;;;;;;5.47;1.47;;;21.30;99.90;;;;;;5078775;28;20185;-83
2021/08/07 10:08:49;;;;;;;4.43;1.50;;;21.10;1.00;;;;;;5078320;28;20173;-82
2021/08/07 10:11:15;;;;;;;6.87;1.50;;;21.20;99.90;;;;;;5078578;28;20259;-81
2021/08/07 10:13:41;;;;;;;6.60;1.47;;;21.30;1.00;;;;;;5079142;28;20192;-81
2021/08/07 10:16:07;;;;;;;6.27;1.80;;;21.40;99.90;;;;;;5062162;28;20263;-79
2021/08/07 10:18:34;;;;;;;7.03;1.73;;;21.20;1.00;;;;;;5077560;28;20220;-77
2021/08/07 10:21:03;;;;;;;3.67;1.30;;;21.30;99.90;;;;;;5059139;28;20619;-79
2021/08/07 10:23:32;;;;;;;6.60;1.67;;;21.40;1.00;;;;;;5059353;28;20187;-79
2021/08/07 10:25:59;;;;;;;5.47;1.40;;;21.30;99.90;;;;;;5077056;28;20188;-79
2021/08/07 10:28:28;;;;;;;7.20;1.67;;;21.30;99.90;;;;;;5076776;28;20259;-80
2021/08/07 10:30:55;;;;;;;6.03;1.40;;;21.50;99.90;;;;;;5078561;28;20172;-81
2021/08/07 10:33:25;;;;;;;6.07;1.60;;;21.60;1.00;;;;;;5061096;28;20172;-78
2021/08/07 10:35:53;;;;;;;4.17;1.30;;;21.50;1.00;;;;;;5051272;28;20545;-78
2021/08/07 10:38:19;;;;;;;7.33;1.50;;;21.50;52.80;;;;;;5067924;28;20185;-79
2021/08/07 10:40:45;;;;;;;6.10;1.43;;;21.30;1.80;;;;;;5085925;28;20216;-83
2021/08/07 10:43:12;;;;;;;6.27;1.43;;;21.40;1.00;;;;;;5080459;28;20183;-79
2021/08/07 10:45:42;;;;;;;6.07;1.60;;;21.60;99.90;;;;;;5077001;28;20178;-79
2021/08/07 10:48:53;;;;;;;4.60;1.40;;;21.50;99.90;;;;;;5059569;28;20711;-79
2021/08/07 10:51:19;;;;;;;7.83;1.73;;;21.60;99.90;;;;;;5073495;28;20193;-80
2021/08/07 10:53:46;;;;;;;5.23;1.40;;;21.70;1.00;;;;;;5083292;28;20222;-79
2021/08/07 10:56:34;;;;;;;4.17;1.37;;;21.80;1.00;;;;;;5078994;28;20207;-80
2021/08/07 10:59:19;;;;;;;6.60;1.40;;;21.90;48.20;;;;;;5075922;28;20165;-78
2021/08/07 11:01:46;;;;;;;4.47;1.40;;;22.10;1.00;;;;;;5074164;28;20173;-83
2021/08/07 11:04:13;;;;;;;5.47;1.60;;;22.10;99.90;;;;;;5075284;28;20173;-81
2021/08/07 11:06:48;;;;;;;5.77;1.60;;;22.20;99.90;;;;;;5076218;28;20276;-79
2021/08/07 11:09:34;;;;;;;4.73;1.50;;;22.10;99.90;;;;;;5057755;28;20660;-80
2021/08/07 11:12:13;;;;;;;4.40;1.20;;;21.90;99.90;;;;;;5075583;28;20267;-78
2021/08/07 11:14:54;;;;;;;5.87;1.30;;;21.90;99.90;;;;;;5075429;28;20207;-79
2021/08/07 11:17:19;;;;;;;5.03;1.50;;;21.90;99.90;;;;;;5074643;28;20164;-81
2021/08/07 11:20:25;;;;;;;4.40;1.40;;;22.00;1.00;;;;;;5074420;28;20177;-78
2021/08/07 11:22:56;;;;;;;3.77;1.80;;;22.10;1.00;;;;;;5035507;28;20244;-78
2021/08/07 11:25:23;;;;;;;4.57;1.57;;;22.40;99.90;;;;;;5075215;28;20188;-78
2021/08/07 11:27:53;;;;;;;4.37;1.33;;;22.80;71.00;;;;;;5082943;28;20198;-79
2021/08/07 11:30:20;;;;;;;3.17;1.60;;;22.90;99.90;;;;;;5070188;28;20181;-77
2021/08/07 11:33:00;;;;;;;4.10;1.73;;;22.90;99.90;;;;;;5070108;28;20181;-77
2021/08/07 11:35:35;;;;;;;4.27;1.53;;;22.90;99.90;;;;;;5090589;28;20210;-78
2021/08/07 11:40:48;;;;;;;5.20;2.07;;;22.80;1.00;;;;;;5097281;28;20280;-78
2021/08/07 11:43:22;;;;;;;5.90;2.30;;;22.70;1.00;;;;;;5089288;28;20169;-79
2021/08/07 11:45:54;;;;;;;5.60;2.37;;;22.60;1.00;;;;;;5081081;28;20210;-79
2021/08/07 11:48:25;;;;;;;4.50;1.90;;;22.50;1.00;;;;;;5082534;28;20163;-81
2021/08/07 11:50:52;;;;;;;5.43;1.90;;;22.50;1.00;;;;;;5063536;28;20184;-79
2021/08/07 11:53:20;;;;;;;4.83;1.90;;;22.30;99.90;;;;;;5080155;28;20175;-78
2021/08/07 11:55:55;;;;;;;3.63;1.53;;;22.30;99.90;;;;;;5077766;28;20168;-78
2021/08/07 11:58:21;;;;;;;4.63;1.53;;;22.50;37.60;;;;;;5079453;28;20508;-78
2021/08/07 12:00:46;;;;;;;4.47;1.30;;;22.80;72.50;;;;;;5083418;28;20169;-79
2021/08/07 12:03:13;;;;;;;5.13;1.37;;;23.10;1.00;;;;;;5092267;28;20191;-79
2021/08/07 12:05:52;;;;;;;4.27;1.50;;;23.30;1.00;;;;;;5080404;28;20169;-79
2021/08/07 12:08:19;;;;;;;5.23;1.77;;;23.50;99.90;;;;;;5092263;28;20170;-80
2021/08/07 12:10:56;;;;;;;6.23;2.27;;;23.50;99.90;;;;;;5073977;28;20167;-80
2021/08/07 12:13:28;;;;;;;5.57;1.63;;;23.30;99.90;;;;;;5074392;28;20178;-79
2021/08/07 12:16:20;;;;;;;10.10;1.93;;;23.30;99.90;;;;;;5059676;28;20265;-79
2021/08/07 12:18:51;;;;;;;5.77;1.57;;;23.20;1.00;;;;;;5078936;28;20164;-80
2021/08/07 12:21:23;;;;;;;4.07;1.33;;;23.20;1.00;;;;;;5078118;28;20170;-80
2021/08/07 12:23:51;;;;;;;3.10;1.03;;;23.20;1.00;;;;;;5077388;28;20200;-82
2021/08/07 12:26:19;;;;;;;4.67;1.50;;;23.00;1.00;;;;;;5077077;28;20281;-80
2021/08/07 12:28:47;;;;;;;4.90;1.80;;;23.00;1.00;;;;;;5077059;28;20176;-78
2021/08/07 12:31:14;;;;;;;6.17;2.03;;;23.00;1.00;;;;;;5077279;28;20177;-79
2021/08/07 12:33:43;;;;;;;4.33;1.63;;;22.90;22.40;;;;;;5076893;28;20193;-83
2021/08/07 12:36:22;;;;;;;7.50;2.10;;;23.00;1.00;;;;;;5077126;28;20173;-82
2021/08/07 12:38:49;;;;;;;4.33;1.23;;;22.90;99.90;;;;;;5058816;28;20206;-79
2021/08/07 12:41:18;;;;;;;5.83;1.57;;;22.80;99.90;;;;;;5076893;28;20186;-80
2021/08/07 12:43:45;;;;;;;4.17;1.23;;;22.90;99.90;;;;;;5076704;28;20168;-78
2021/08/07 12:46:14;;;;;;;4.07;1.30;;;23.00;99.90;;;;;;5076980;28;20161;-81
2021/08/07 12:48:46;;;;;;;2.70;1.03;;;23.00;99.90;;;;;;5076903;28;20258;-79
2021/08/07 12:51:12;;;;;;;6.47;1.60;;;22.90;99.90;;;;;;5077166;28;20157;-80
2021/08/07 12:53:43;;;;;;;7.83;1.60;;;23.00;99.90;;;;;;5058853;28;20181;-82
2021/08/07 12:56:10;;;;;;;4.80;1.50;;;23.10;99.90;;;;;;5076623;28;20546;-79
2021/08/07 12:58:36;;;;;;;4.10;1.40;;;23.00;1.00;;;;;;5076778;28;20173;-79